Time;durP1;ratioP1;P1;durP2;ratioP2;P2;SDS_P1;SDS_P2;PMS_P1;PMS_P2;Temp;Humidity;BMP_temperature;BMP_pressure;BME280_temperature;BME280_humidity;BME280_pressure;Samples;Min_cycle;Max_cycle;Signal;HPM_P1;HPM_P2
2023/04/05 00:02:04;;;;;;;1.67;0.60;;;;;;;15.82;30.27;102050.50;5113517;28;20015;-62
2023/04/05 00:04:33;;;;;;;1.65;0.60;;;;;;;15.66;29.97;102038.31;5088216;28;20055;-57
2023/04/05 00:07:01;;;;;;;3.88;0.80;;;;;;;15.38;32.58;102046.63;5102825;28;20016;-58
2023/04/05 00:09:27;;;;;;;1.50;0.47;;;;;;;15.54;30.30;102040.78;5098527;28;20105;-61
2023/04/05 00:11:55;;;;;;;4.57;0.90;;;;;;;15.38;32.54;102037.69;5105625;28;20099;-63
2023/04/05 00:14:21;;;;;;;2.33;0.60;;;;;;;15.27;33.69;102050.78;5093277;28;20076;-59
2023/04/05 00:16:48;;;;;;;2.55;0.80;;;;;;;15.11;33.63;102045.78;5092095;28;20028;-57
2023/04/05 00:19:14;;;;;;;2.67;0.60;;;;;;;15.24;33.34;102045.78;5099504;28;20024;-58
2023/04/05 00:21:40;;;;;;;1.15;0.60;;;;;;;15.16;32.69;102050.56;5098264;28;20095;-57
2023/04/05 00:24:08;;;;;;;1.25;0.50;;;;;;;14.94;32.67;102044.53;5100436;28;20032;-57
2023/04/05 00:26:35;;;;;;;1.85;0.43;;;;;;;15.02;33.30;102047.84;5102967;28;20070;-59
2023/04/05 00:29:01;;;;;;;1.90;0.77;;;;;;;14.74;34.87;102039.09;5091782;28;20020;-64
2023/04/05 00:31:29;;;;;;;2.83;0.60;;;;;;;14.48;35.50;102046.06;5092937;28;20051;-60
2023/04/05 00:33:55;;;;;;;3.95;0.82;;;;;;;14.45;36.42;102053.72;5091971;28;20118;-58
2023/04/05 00:36:22;;;;;;;3.40;0.82;;;;;;;14.49;37.99;102047.75;5093424;28;20032;-61
2023/04/05 00:38:48;;;;;;;5.45;1.00;;;;;;;14.57;37.35;102049.41;5076566;28;20020;-66
2023/04/05 00:41:15;;;;;;;1.90;0.80;;;;;;;14.70;38.40;102037.84;5092321;28;20096;-60
2023/04/05 00:43:41;;;;;;;6.53;1.10;;;;;;;14.61;37.03;102047.16;5082623;28;20104;-67
2023/04/05 00:46:08;;;;;;;6.25;1.05;;;;;;;14.73;38.27;102045.53;5086250;28;20024;-69
2023/04/05 00:48:35;;;;;;;4.07;0.90;;;;;;;14.56;37.45;102046.94;5085978;28;20491;-64
2023/04/05 00:51:01;;;;;;;4.47;1.00;;;;;;;14.34;37.86;102048.91;5090347;28;20020;-66
2023/04/05 00:53:28;;;;;;;2.25;0.90;;;;;;;14.14;37.86;102040.72;5091624;28;20023;-62
2023/04/05 00:55:55;;;;;;;2.85;0.90;;;;;;;14.18;38.34;102044.69;5092539;28;20028;-72
2023/04/05 00:58:22;;;;;;;2.85;0.93;;;;;;;14.04;39.75;102049.16;5092650;28;20492;-71
2023/04/05 01:01:05;;;;;;;4.47;1.00;;;;;;;13.99;39.57;102057.00;5092132;28;20457;-63
2023/04/05 01:03:33;;;;;;;6.13;1.23;;;;;;;13.85;40.60;102068.75;5092299;28;20024;-61
2023/04/05 01:06:28;;;;;;;2.00;1.00;;;;;;;13.61;42.22;102057.41;5090879;28;20020;-61
2023/04/05 01:09:05;;;;;;;3.83;1.08;;;;;;;13.53;43.10;102062.94;5092348;28;20062;-57
2023/04/05 01:11:34;;;;;;;4.70;1.30;;;;;;;13.44;43.17;102058.75;5094552;28;20035;-56
2023/04/05 01:14:01;;;;;;;4.93;1.00;;;;;;;13.34;43.23;102061.75;5102238;28;20058;-58
2023/04/05 01:16:28;;;;;;;4.80;1.25;;;;;;;13.38;43.34;102073.81;5102243;28;20038;-65
2023/04/05 01:18:57;;;;;;;5.65;1.27;;;;;;;13.05;44.17;102064.56;5091119;28;20421;-63
2023/04/05 01:21:38;;;;;;;4.85;1.00;;;;;;;13.05;44.98;102061.88;5092139;28;20516;-64
2023/04/05 01:24:32;;;;;;;4.38;1.25;;;;;;;12.53;46.81;102063.81;5091978;28;20035;-64
2023/04/05 01:27:16;;;;;;;6.68;1.10;;;;;;;12.63;45.52;102066.19;5089013;28;20020;-63
2023/04/05 01:30:16;;;;;;;4.15;1.50;;;;;;;12.62;45.85;102070.75;5070759;28;20052;-60
2023/04/05 01:33:14;;;;;;;3.95;1.10;;;;;;;12.48;46.58;102063.53;5068871;28;20024;-62
2023/04/05 01:35:52;;;;;;;2.30;1.00;;;;;;;12.12;47.37;102069.72;5077904;28;20407;-64
2023/04/05 01:38:26;;;;;;;4.75;1.42;;;;;;;11.71;48.97;102066.59;5071691;28;20124;-64
2023/04/05 01:40:53;;;;;;;4.95;1.35;;;;;;;11.64;49.77;102079.09;5071984;28;20032;-64
2023/04/05 01:43:19;;;;;;;4.13;1.10;;;;;;;11.50;49.47;102063.81;5072072;28;20115;-64
2023/04/05 01:45:46;;;;;;;5.07;1.42;;;;;;;11.46;49.91;102063.34;5071973;28;20025;-64
2023/04/05 01:48:14;;;;;;;8.25;1.63;;;;;;;11.49;50.78;102072.84;5072021;28;20028;-64
2023/04/05 01:50:41;;;;;;;3.22;1.08;;;;;;;11.60;50.95;102051.81;5071610;28;20047;-64
2023/04/05 01:53:08;;;;;;;4.70;1.40;;;;;;;11.58;50.53;102058.38;5071837;28;20028;-64
2023/04/05 01:55:34;;;;;;;3.55;1.10;;;;;;;11.23;50.71;102041.94;5071728;28;20470;-63
2023/04/05 01:58:00;;;;;;;5.30;1.10;;;;;;;11.28;51.01;102047.59;5092746;28;20040;-64
2023/04/05 02:00:27;;;;;;;4.95;1.20;;;;;;;11.30;50.75;102053.59;5080894;28;20020;-65
2023/04/05 02:02:53;;;;;;;5.05;1.27;;;;;;;11.13;50.52;102052.06;5093669;28;20024;-65
2023/04/05 02:05:19;;;;;;;2.70;1.40;;;;;;;11.02;51.07;102049.81;5091536;28;20119;-62
2023/04/05 02:07:45;;;;;;;5.93;1.35;;;;;;;11.00;50.94;102051.84;5078890;28;20024;-63
2023/04/05 02:10:11;;;;;;;9.18;1.55;;;;;;;11.02;50.46;102047.97;5077136;28;20016;-62
2023/04/05 02:12:39;;;;;;;7.05;1.27;;;;;;;10.87;52.06;102057.78;5077326;28;20032;-63
2023/04/05 02:15:05;;;;;;;3.10;1.20;;;;;;;10.89;51.81;102061.13;5078348;28;20036;-64
2023/04/05 02:17:37;;;;;;;7.97;1.50;;;;;;;10.96;52.13;102058.56;5095915;28;20032;-64
2023/04/05 02:20:11;;;;;;;6.22;1.48;;;;;;;10.88;52.03;102051.41;5102720;28;20032;-63
2023/04/05 02:22:38;;;;;;;4.25;1.27;;;;;;;10.79;52.09;102056.00;5117895;27;20541;-64
2023/04/05 02:25:07;;;;;;;6.07;1.50;;;;;;;10.72;52.95;102055.06;5095568;28;20080;-62
2023/04/05 02:27:34;;;;;;;5.68;1.55;;;;;;;10.75;52.97;102054.69;5095557;28;20016;-63
2023/04/05 02:30:01;;;;;;;5.65;1.63;;;;;;;10.85;52.49;102059.81;5095317;28;20102;-63
2023/04/05 02:32:28;;;;;;;6.47;1.60;;;;;;;10.75;52.87;102067.25;5095503;28;20032;-62
2023/04/05 02:34:54;;;;;;;3.15;1.42;;;;;;;10.51;53.46;102057.53;5095600;28;20040;-63
2023/04/05 02:37:20;;;;;;;7.93;1.52;;;;;;;10.50;53.63;102061.22;5112155;28;20028;-62
2023/04/05 02:39:46;;;;;;;7.63;1.60;;;;;;;10.35;53.36;102073.66;5095330;28;20020;-63
2023/04/05 02:42:13;;;;;;;6.25;1.95;;;;;;;10.31;53.80;102079.34;5095707;28;20024;-59
2023/04/05 02:44:39;;;;;;;6.80;1.30;;;;;;;10.44;53.04;102086.00;5095359;28;20031;-59
2023/04/05 02:47:05;;;;;;;3.70;1.48;;;;;;;10.49;53.35;102075.59;5095336;28;20028;-59
2023/04/05 02:49:31;;;;;;;6.18;1.70;;;;;;;10.62;53.11;102085.75;5095143;28;20028;-59
2023/04/05 02:51:58;;;;;;;7.13;1.67;;;;;;;10.47;53.39;102077.63;5095681;28;20028;-58
2023/04/05 02:54:25;;;;;;;9.25;2.13;;;;;;;10.17;53.98;102076.56;5095479;28;20028;-60
2023/04/05 02:56:53;;;;;;;5.43;1.52;;;;;;;9.94;54.67;102084.50;5095115;28;20024;-58
2023/04/05 02:59:19;;;;;;;5.15;1.58;;;;;;;9.99;55.04;102085.66;5094974;28;20099;-57
2023/04/05 03:01:46;;;;;;;7.88;1.63;;;;;;;10.02;55.28;102076.44;5094748;28;20531;-58
2023/04/05 03:04:12;;;;;;;4.00;1.75;;;;;;;10.04;55.39;102082.44;5094898;28;20583;-58
2023/04/05 03:06:47;;;;;;;7.53;1.77;;;;;;;9.88;55.92;102083.31;5094696;28;20036;-57
2023/04/05 03:09:14;;;;;;;6.03;1.73;;;;;;;9.84;56.30;102081.16;5097628;28;20023;-57
2023/04/05 03:11:40;;;;;;;6.10;1.45;;;;;;;9.96;56.52;102085.13;5113546;28;20115;-59
2023/04/05 03:14:06;;;;;;;6.63;1.92;;;;;;;9.87;56.68;102083.47;5115188;28;20047;-59
2023/04/05 03:16:33;;;;;;;8.23;2.00;;;;;;;10.07;56.20;102086.63;5095145;28;20055;-58
2023/04/05 03:18:59;;;;;;;5.80;1.75;;;;;;;10.04;56.43;102088.59;5094961;28;20081;-58
2023/04/05 03:21:25;;;;;;;10.13;1.98;;;;;;;10.18;56.24;102088.91;5094428;28;20103;-59
2023/04/05 03:23:52;;;;;;;7.07;1.90;;;;;;;10.18;56.23;102084.41;5095000;28;20495;-58
2023/04/05 03:26:18;;;;;;;5.57;1.20;;;;;;;10.22;56.63;102083.06;5095214;28;20020;-58
2023/04/05 03:28:44;;;;;;;6.95;1.50;;;;;;;10.28;56.50;102086.91;5094627;28;20042;-58
2023/04/05 03:31:11;;;;;;;5.93;1.60;;;;;;;10.21;56.39;102078.69;5094434;28;20131;-59
2023/04/05 03:33:38;;;;;;;8.48;1.92;;;;;;;10.10;57.47;102084.41;5095397;28;20032;-57
2023/04/05 03:36:07;;;;;;;11.15;2.15;;;;;;;10.17;56.88;102085.41;5094634;28;20024;-57
2023/04/05 03:38:34;;;;;;;10.25;1.60;;;;;;;10.13;57.09;102097.47;5094522;28;20024;-58
2023/04/05 03:41:02;;;;;;;6.22;1.80;;;;;;;10.09;57.65;102084.59;5094038;28;20028;-58
2023/04/05 03:43:29;;;;;;;11.02;2.17;;;;;;;10.02;57.94;102087.13;5098700;28;20531;-58
2023/04/05 03:45:56;;;;;;;8.93;2.33;;;;;;;9.79;58.58;102087.84;5093883;28;20107;-58
2023/04/05 03:48:22;;;;;;;8.15;2.00;;;;;;;10.00;57.89;102087.31;5081733;28;20032;-58
2023/04/05 03:50:48;;;;;;;5.07;1.98;;;;;;;9.70;59.72;102090.69;5073560;28;20024;-58
2023/04/05 03:53:17;;;;;;;7.68;1.67;;;;;;;9.85;59.16;102093.53;5101135;28;20104;-58
2023/04/05 03:55:48;;;;;;;7.40;2.03;;;;;;;9.70;60.06;102098.72;5114205;28;20024;-58
2023/04/05 03:58:18;;;;;;;10.30;2.25;;;;;;;9.84;59.97;102102.56;5112511;28;20066;-58
2023/04/05 04:00:44;;;;;;;7.85;1.98;;;;;;;9.68;60.06;102104.25;5112672;28;20028;-57
2023/04/05 04:03:10;;;;;;;7.70;2.65;;;;;;;9.57;60.92;102114.44;5110425;28;20024;-56
2023/04/05 04:05:37;;;;;;;5.90;1.92;;;;;;;9.52;61.27;102104.25;5113865;28;20346;-56
2023/04/05 04:08:06;;;;;;;8.57;2.10;;;;;;;9.58;61.41;102111.59;5111909;28;20031;-57
2023/04/05 04:10:34;;;;;;;9.15;2.28;;;;;;;9.45;61.61;102117.47;5113766;28;20047;-57
2023/04/05 04:13:00;;;;;;;7.57;2.15;;;;;;;9.56;61.45;102118.13;5109184;28;20507;-57
2023/04/05 04:15:26;;;;;;;6.55;2.30;;;;;;;9.36;62.30;102123.81;5094541;28;20039;-56
2023/04/05 04:17:53;;;;;;;7.97;1.98;;;;;;;9.43;62.76;102110.59;5097062;28;20498;-58
2023/04/05 04:20:19;;;;;;;7.22;1.80;;;;;;;9.31;62.79;102110.09;5105229;28;20024;-58
2023/04/05 04:22:47;;;;;;;10.85;2.38;;;;;;;9.19;63.73;102117.63;5108304;28;20039;-58
2023/04/05 04:25:16;;;;;;;7.43;2.22;;;;;;;9.22;63.83;102119.97;5113465;28;20476;-58
2023/04/05 04:27:45;;;;;;;9.05;2.20;;;;;;;9.17;64.10;102114.28;5104275;28;20027;-57
2023/04/05 04:30:14;;;;;;;6.47;2.35;;;;;;;9.18;64.02;102118.63;5112813;28;20031;-58
2023/04/05 04:32:54;;;;;;;9.13;2.20;;;;;;;9.29;63.87;102122.81;5100567;28;20401;-57
2023/04/05 04:35:26;;;;;;;11.90;2.97;;;;;;;9.25;63.89;102130.31;5072643;28;20032;-57
2023/04/05 04:38:00;;;;;;;11.75;2.10;;;;;;;9.22;64.16;102121.81;5099219;28;20032;-57
2023/04/05 04:40:39;;;;;;;9.95;2.10;;;;;;;9.14;64.68;102122.63;5112740;28;20052;-57
2023/04/05 04:43:13;;;;;;;11.43;2.60;;;;;;;8.99;65.33;102118.91;5110760;28;20031;-57
2023/04/05 04:45:47;;;;;;;13.52;2.42;;;;;;;9.02;65.54;102131.13;5112801;28;20024;-57
2023/04/05 04:48:15;;;;;;;12.90;2.20;;;;;;;9.15;65.42;102129.63;5105071;28;20028;-57
2023/04/05 04:50:43;;;;;;;15.90;2.67;;;;;;;8.96;65.98;102132.59;5112782;28;20027;-57
2023/04/05 04:53:09;;;;;;;10.90;2.85;;;;;;;9.03;65.99;102128.28;5111029;27;20031;-57
2023/04/05 04:55:36;;;;;;;7.72;2.20;;;;;;;9.07;65.98;102132.28;5090727;28;20032;-57
2023/04/05 04:58:09;;;;;;;13.15;2.80;;;;;;;9.01;65.88;102124.09;5072135;28;20028;-57
2023/04/05 05:00:39;;;;;;;13.95;2.38;;;;;;;8.97;66.13;102131.59;5076012;28;20461;-57
2023/04/05 05:03:07;;;;;;;11.45;2.53;;;;;;;8.92;66.58;102133.94;5075731;28;20110;-57
2023/04/05 05:05:33;;;;;;;7.28;2.00;;;;;;;8.96;66.31;102132.59;5072202;28;20078;-58
2023/04/05 05:08:00;;;;;;;5.70;1.98;;;;;;;9.06;65.84;102135.97;5073894;28;20028;-59
2023/04/05 05:10:26;;;;;;;6.95;1.80;;;;;;;9.15;65.63;102134.97;5112321;27;20496;-58
2023/04/05 05:12:53;;;;;;;8.52;2.22;;;;;;;9.22;65.68;102136.00;5112032;28;20056;-57
2023/04/05 05:15:19;;;;;;;4.78;1.98;;;;;;;9.11;65.70;102144.34;5101722;28;20012;-57
2023/04/05 05:17:46;;;;;;;10.27;1.92;;;;;;;9.29;65.08;102133.50;5071987;28;20067;-58
2023/04/05 05:20:12;;;;;;;7.07;1.80;;;;;;;9.18;65.06;102134.66;5071462;28;20078;-57
2023/04/05 05:22:39;;;;;;;6.38;1.75;;;;;;;9.18;64.65;102133.81;5071587;28;20484;-57
2023/04/05 05:25:07;;;;;;;8.75;1.85;;;;;;;9.13;65.37;102133.47;5089014;28;20036;-57
2023/04/05 05:27:33;;;;;;;7.93;2.00;;;;;;;9.15;65.23;102134.97;5090817;28;20103;-57
2023/04/05 05:30:00;;;;;;;10.23;2.17;;;;;;;9.14;65.79;102121.78;5108247;28;20483;-57
2023/04/05 05:32:26;;;;;;;8.80;2.50;;;;;;;9.23;64.66;102110.13;5097487;28;20040;-57
2023/04/05 05:34:52;;;;;;;7.28;2.20;;;;;;;9.09;65.52;102113.44;5090921;28;20031;-57
2023/04/05 05:37:21;;;;;;;4.57;1.95;;;;;;;9.02;65.99;102110.59;5101038;28;20130;-58
2023/04/05 05:39:47;;;;;;;6.63;2.05;;;;;;;8.97;66.07;102119.09;5112111;28;20027;-58
2023/04/05 05:42:13;;;;;;;6.45;2.03;;;;;;;8.93;66.20;102128.41;5109294;28;20023;-57
2023/04/05 05:44:39;;;;;;;5.82;1.60;;;;;;;9.10;65.84;102131.13;5112095;28;20035;-58
2023/04/05 05:47:06;;;;;;;5.35;1.83;;;;;;;9.02;66.23;102128.44;5104686;28;20035;-57
2023/04/05 05:49:32;;;;;;;8.77;2.20;;;;;;;8.89;66.55;102124.44;5111764;28;20068;-57
2023/04/05 05:51:58;;;;;;;10.75;2.08;;;;;;;8.90;66.63;102119.91;5101184;28;20336;-57
2023/04/05 05:54:25;;;;;;;7.28;1.83;;;;;;;8.73;67.30;102119.03;5071703;28;20032;-57
2023/04/05 05:56:51;;;;;;;6.82;2.17;;;;;;;8.71;67.64;102118.34;5095010;28;20357;-57
2023/04/05 05:59:17;;;;;;;7.35;2.20;;;;;;;8.73;67.15;102119.03;5106708;28;20024;-57
2023/04/05 06:01:45;;;;;;;6.43;1.90;;;;;;;8.52;68.03;102124.81;5093798;28;20032;-57
2023/04/05 06:04:15;;;;;;;8.80;2.13;;;;;;;8.56;67.91;102118.16;5091824;28;20028;-57
2023/04/05 06:06:42;;;;;;;7.60;2.00;;;;;;;8.59;68.26;102120.47;5111812;28;20020;-57
2023/04/05 06:09:09;;;;;;;6.13;1.95;;;;;;;8.63;67.76;102113.81;5109458;28;20028;-57
2023/04/05 06:11:36;;;;;;;5.97;2.08;;;;;;;8.55;67.75;102118.28;5111501;28;20024;-57
2023/04/05 06:14:02;;;;;;;12.00;1.80;;;;;;;8.62;67.53;102111.34;5111645;28;20043;-58
2023/04/05 06:16:29;;;;;;;6.18;1.60;;;;;;;8.51;67.90;102114.28;5104350;28;20137;-58
2023/04/05 06:18:56;;;;;;;7.47;2.15;;;;;;;8.65;67.29;102111.00;5111594;28;20049;-57
2023/04/05 06:21:23;;;;;;;7.07;1.73;;;;;;;8.65;66.88;102111.00;5109860;28;20058;-58
2023/04/05 06:23:49;;;;;;;9.00;1.63;;;;;;;8.73;66.85;102113.69;5111641;28;20348;-57
2023/04/05 06:26:21;;;;;;;7.93;1.88;;;;;;;8.75;66.79;102116.19;5093344;28;20385;-59
2023/04/05 06:28:49;;;;;;;3.10;1.50;;;;;;;8.87;66.63;102114.88;5091113;28;20051;-58
2023/04/05 06:31:16;;;;;;;7.90;1.95;;;;;;;8.80;66.26;102117.38;5105989;28;20035;-57
2023/04/05 06:33:43;;;;;;;6.80;1.83;;;;;;;8.85;65.94;102123.06;5111678;28;20111;-57
2023/04/05 06:36:10;;;;;;;5.35;1.65;;;;;;;8.87;65.90;102117.56;5108492;28;20028;-57
2023/04/05 06:38:36;;;;;;;9.93;2.10;;;;;;;8.73;66.40;102113.69;5111731;28;20034;-57
2023/04/05 06:41:03;;;;;;;6.55;1.70;;;;;;;8.49;67.32;102122.44;5096529;28;20032;-58
2023/04/05 06:43:31;;;;;;;5.25;1.75;;;;;;;8.59;66.57;102130.31;5091431;28;20369;-58
2023/04/05 06:45:58;;;;;;;6.38;2.17;;;;;;;8.32;67.42;102132.16;5091086;28;20415;-57
2023/04/05 06:48:24;;;;;;;15.77;6.00;;;;;;;8.07;67.82;102133.88;5095291;28;20071;-58
2023/04/05 06:51:01;;;;;;;18.92;5.78;;;;;;;8.27;67.13;102134.47;5103142;28;20034;-57
2023/04/05 06:53:28;;;;;;;18.13;4.13;;;;;;;8.69;65.58;102129.19;5081161;28;20029;-58
2023/04/05 06:55:55;;;;;;;9.60;3.80;;;;;;;8.44;66.02;102122.13;5083401;28;20537;-59
2023/04/05 06:58:22;;;;;;;10.50;2.92;;;;;;;7.91;68.05;102129.28;5094697;28;20416;-59
2023/04/05 07:00:49;;;;;;;6.93;2.65;;;;;;;7.65;69.06;102131.94;5101971;28;20031;-59
2023/04/05 07:03:16;;;;;;;7.35;2.10;;;;;;;7.40;70.11;102132.75;5114902;28;20080;-59
2023/04/05 07:05:53;;;;;;;8.73;2.28;;;;;;;7.47;70.16;102130.28;5107130;28;20353;-59
2023/04/05 07:08:20;;;;;;;8.25;1.90;;;;;;;7.23;70.62;102141.59;5114840;28;20023;-58
2023/04/05 07:10:47;;;;;;;10.80;2.65;;;;;;;6.81;72.49;102134.16;5112727;28;20076;-58
2023/04/05 07:13:13;;;;;;;8.93;2.83;;;;;;;6.38;74.55;102140.13;5113250;28;20522;-56
2023/04/05 07:15:40;;;;;;;9.93;2.72;;;;;;;6.17;75.54;102140.34;5112434;28;20393;-57
2023/04/05 07:18:06;;;;;;;7.53;2.15;;;;;;;6.48;74.57;102138.25;5114658;28;20016;-57
2023/04/05 07:20:32;;;;;;;7.10;2.15;;;;;;;6.67;73.73;102138.16;5104746;28;20020;-57
2023/04/05 07:23:11;;;;;;;6.10;2.00;;;;;;;6.96;72.31;102142.47;5094039;28;20028;-59
2023/04/05 07:25:40;;;;;;;7.20;2.05;;;;;;;6.80;72.44;102135.16;5108474;28;20024;-58
2023/04/05 07:28:06;;;;;;;3.65;1.55;;;;;;;6.41;74.24;102132.69;5095706;28;20160;-58
2023/04/05 07:30:32;;;;;;;8.27;2.10;;;;;;;6.70;73.25;102139.69;5093765;28;20384;-58
2023/04/05 07:32:59;;;;;;;7.10;2.15;;;;;;;6.75;72.81;102140.91;5093994;28;20024;-58
2023/04/05 07:35:25;;;;;;;8.32;2.20;;;;;;;6.24;74.74;102144.09;5094034;28;20103;-58
2023/04/05 07:37:51;;;;;;;10.38;2.28;;;;;;;6.31;74.46;102150.50;5093913;28;20115;-58
2023/04/05 07:40:18;;;;;;;8.45;2.42;;;;;;;6.24;74.73;102146.75;5093428;28;20024;-58
2023/04/05 07:42:44;;;;;;;6.70;2.05;;;;;;;5.73;77.12;102151.47;5094233;28;20020;-58
2023/04/05 07:45:10;;;;;;;5.55;2.25;;;;;;;5.70;77.66;102142.94;5093925;28;20024;-58
2023/04/05 07:47:37;;;;;;;9.15;2.72;;;;;;;5.59;77.69;102157.22;5093802;28;20043;-58
2023/04/05 07:50:03;;;;;;;7.28;2.40;;;;;;;5.55;78.23;102154.03;5093443;28;20555;-58
2023/04/05 07:52:29;;;;;;;12.60;2.45;;;;;;;5.62;78.02;102158.75;5084772;28;20096;-58
2023/04/05 07:54:56;;;;;;;8.43;2.28;;;;;;;5.59;78.51;102159.88;5073205;28;20120;-58
2023/04/05 07:57:22;;;;;;;8.57;2.13;;;;;;;5.91;77.43;102154.28;5072577;28;20452;-58
2023/04/05 07:59:51;;;;;;;7.28;2.20;;;;;;;5.96;76.56;102145.88;5105364;28;20574;-57
2023/04/05 08:02:18;;;;;;;10.30;2.25;;;;;;;5.86;77.22;102153.81;5113744;28;20046;-58
2023/04/05 08:04:44;;;;;;;7.03;2.40;;;;;;;5.75;77.61;102151.31;5113774;28;20106;-58
2023/04/05 08:07:11;;;;;;;5.63;1.92;;;;;;;5.84;77.32;102155.78;5113855;28;20024;-58
2023/04/05 08:09:37;;;;;;;10.02;2.63;;;;;;;5.83;77.10;102154.97;5113561;28;20024;-58
2023/04/05 08:12:05;;;;;;;8.90;2.75;;;;;;;5.52;78.11;102153.44;5113841;28;20085;-58
2023/04/05 08:14:31;;;;;;;7.45;2.38;;;;;;;5.39;79.25;102161.72;5113376;28;20040;-58
2023/04/05 08:16:57;;;;;;;9.70;2.45;;;;;;;5.27;79.42;102155.69;5093768;28;20038;-58
2023/04/05 08:19:23;;;;;;;11.93;2.33;;;;;;;5.35;79.28;102160.31;5092931;28;20090;-58
2023/04/05 08:21:50;;;;;;;6.57;1.95;;;;;;;5.65;78.30;102158.47;5092904;28;20020;-59
2023/04/05 08:24:16;;;;;;;6.30;2.38;;;;;;;5.60;77.99;102158.88;5093068;28;20031;-59
2023/04/05 08:26:42;;;;;;;9.93;2.20;;;;;;;5.46;78.47;102154.03;5092791;28;20097;-58
2023/04/05 08:29:09;;;;;;;5.72;2.40;;;;;;;5.38;79.28;102152.03;5084890;28;20500;-58
2023/04/05 08:31:35;;;;;;;8.57;2.65;;;;;;;5.30;79.90;102157.22;5082391;28;20043;-57
2023/04/05 08:34:01;;;;;;;11.48;2.03;;;;;;;5.26;80.13;102156.66;5074506;28;20026;-58
2023/04/05 08:36:28;;;;;;;8.38;1.60;;;;;;;5.56;79.08;102153.03;5071900;28;20028;-59
2023/04/05 08:38:54;;;;;;;11.13;2.55;;;;;;;5.50;78.71;102147.47;5072596;28;20048;-58
2023/04/05 08:41:26;;;;;;;7.80;1.92;;;;;;;5.57;78.07;102159.19;5071652;28;20008;-57
2023/04/05 08:43:57;;;;;;;7.18;2.00;;;;;;;5.63;77.75;102153.31;5088762;28;20031;-58
2023/04/05 08:46:24;;;;;;;5.78;1.75;;;;;;;5.81;76.72;102148.09;5081996;28;20025;-59
2023/04/05 08:48:52;;;;;;;6.78;1.88;;;;;;;6.05;76.32;102151.16;5070715;28;20335;-59
2023/04/05 08:51:22;;;;;;;5.70;1.75;;;;;;;6.14;75.50;102151.28;5071588;28;20020;-59
2023/04/05 08:53:48;;;;;;;6.13;1.40;;;;;;;6.02;75.76;102143.47;5071419;28;20027;-58
2023/04/05 08:56:18;;;;;;;3.70;1.85;;;;;;;6.16;75.02;102154.59;5082450;28;20028;-58
2023/04/05 08:59:10;;;;;;;5.35;2.00;;;;;;;6.16;74.74;102146.63;5070914;28;20066;-58
2023/04/05 09:01:38;;;;;;;5.65;1.73;;;;;;;5.72;76.47;102135.66;5071734;28;20054;-58
2023/04/05 09:04:14;;;;;;;4.40;1.40;;;;;;;5.95;75.61;102134.41;5084921;28;20066;-58
2023/04/05 09:06:41;;;;;;;4.82;1.85;;;;;;;5.79;75.67;102137.63;5080152;28;20021;-58
2023/04/05 09:09:08;;;;;;;4.00;1.50;;;;;;;5.84;75.61;102139.84;5083551;28;20032;-58
2023/04/05 09:11:35;;;;;;;4.82;1.60;;;;;;;5.91;75.14;102135.66;5112132;28;20095;-59
2023/04/05 09:14:05;;;;;;;6.45;1.75;;;;;;;6.07;74.56;102137.72;5110252;28;20060;-58
2023/04/05 09:16:39;;;;;;;6.68;2.03;;;;;;;6.03;74.16;102128.34;5112255;28;20086;-58
2023/04/05 09:19:05;;;;;;;5.88;1.40;;;;;;;5.73;74.98;102124.06;5078341;28;20369;-59
2023/04/05 09:22:06;;;;;;;5.50;1.52;;;;;;;5.50;76.65;102131.53;5070667;28;20107;-59
2023/04/05 09:24:39;;;;;;;6.68;1.45;;;;;;;5.66;76.17;102125.59;5069235;28;20392;-58
2023/04/05 09:27:10;;;;;;;7.32;1.60;;;;;;;5.74;75.43;102125.75;5071637;28;20024;-58
2023/04/05 09:29:41;;;;;;;3.28;1.25;;;;;;;5.80;75.09;102127.81;5070318;28;20278;-59
2023/04/05 09:32:09;;;;;;;10.05;2.33;;;;;;;5.85;74.85;102119.44;5071228;28;20033;-59
2023/04/05 09:34:36;;;;;;;2.67;1.48;;;;;;;5.87;74.32;102123.59;5074050;28;20433;-58
2023/04/05 09:37:32;;;;;;;5.55;1.52;;;;;;;5.88;74.56;102122.63;5082051;28;20034;-58
2023/04/05 09:40:03;;;;;;;8.52;1.98;;;;;;;5.76;74.90;102118.47;5070464;28;20055;-58
2023/04/05 09:42:44;;;;;;;13.68;2.00;;;;;;;5.82;74.43;102116.06;5081237;28;20120;-58
2023/04/05 09:45:11;;;;;;;6.13;1.80;;;;;;;5.69;74.53;102120.03;5079673;28;20090;-58
2023/04/05 09:47:37;;;;;;;9.90;2.25;;;;;;;5.17;76.79;102117.69;5071270;28;20040;-58
2023/04/05 09:50:18;;;;;;;6.25;1.60;;;;;;;5.23;76.70;102113.63;5070773;28;20492;-58
2023/04/05 09:52:45;;;;;;;4.22;1.50;;;;;;;5.39;76.30;102113.91;5071318;28;20032;-58
2023/04/05 09:55:12;;;;;;;6.07;1.80;;;;;;;5.28;76.44;102108.75;5073055;28;20507;-58
2023/04/05 09:57:42;;;;;;;5.72;1.70;;;;;;;5.41;76.05;102105.81;5071035;28;20032;-58
2023/04/05 10:00:19;;;;;;;3.78;1.45;;;;;;;5.47;75.93;102107.88;5070445;28;20318;-58
2023/04/05 10:02:50;;;;;;;4.65;1.42;;;;;;;5.59;75.25;102113.88;5070988;28;20369;-58
2023/04/05 10:05:17;;;;;;;5.35;1.70;;;;;;;5.47;75.92;102100.75;5071238;28;20044;-58
2023/04/05 10:07:44;;;;;;;3.55;1.27;;;;;;;5.32;76.36;102101.31;5071051;28;20021;-58
2023/04/05 10:10:11;;;;;;;5.03;1.63;;;;;;;5.26;76.85;102097.41;5069953;28;20117;-58
2023/04/05 10:12:44;;;;;;;5.60;1.65;;;;;;;5.23;76.78;102093.25;5070766;28;20040;-58
2023/04/05 10:15:12;;;;;;;4.90;1.70;;;;;;;4.60;79.59;102097.22;5071213;28;20100;-59
2023/04/05 10:17:54;;;;;;;4.95;1.70;;;;;;;4.31;82.01;102099.78;5070811;28;20059;-58
2023/04/05 10:20:24;;;;;;;3.55;1.50;;;;;;;4.58;80.88;102099.16;5071408;28;20087;-59
2023/04/05 10:22:58;;;;;;;6.13;1.63;;;;;;;4.69;79.84;102101.72;5075093;28;20066;-58
2023/04/05 10:25:49;;;;;;;6.95;1.60;;;;;;;4.53;80.66;102093.44;5074019;28;20097;-58
2023/04/05 10:28:35;;;;;;;6.18;1.75;;;;;;;4.25;82.25;102093.22;5074489;28;20025;-58
2023/04/05 10:31:15;;;;;;;9.65;1.80;;;;;;;4.33;82.09;102089.88;5077586;28;20036;-58
2023/04/05 10:33:46;;;;;;;11.07;2.20;;;;;;;4.33;82.00;102089.88;5074574;28;20105;-58
2023/04/05 10:36:25;;;;;;;6.30;1.63;;;;;;;4.40;82.27;102091.03;5114398;28;20036;-59
2023/04/05 10:39:03;;;;;;;3.58;1.38;;;;;;;4.68;80.41;102084.13;5092258;28;20443;-59
2023/04/05 10:42:21;;;;;;;5.82;1.90;;;;;;;4.49;81.73;102083.09;5115323;28;20062;-59
2023/04/05 10:44:54;;;;;;;10.32;1.75;;;;;;;4.15;82.90;102087.03;5094227;28;20043;-59
2023/04/05 10:47:22;;;;;;;10.70;1.95;;;;;;;4.05;83.61;102080.84;5115241;28;20452;-58
2023/04/05 10:49:53;;;;;;;15.05;1.88;;;;;;;4.43;82.12;102083.63;5088764;27;20107;-58
2023/04/05 10:52:21;;;;;;;6.47;1.90;;;;;;;4.47;80.94;102079.75;5080403;28;20016;-57
2023/04/05 10:54:49;;;;;;;7.18;1.85;;;;;;;4.01;83.35;102082.94;5073404;28;20047;-58
2023/04/05 10:57:19;;;;;;;4.97;1.67;;;;;;;3.95;84.01;102072.88;5074033;28;20028;-58
2023/04/05 10:59:47;;;;;;;6.88;1.80;;;;;;;4.00;83.21;102072.44;5096318;28;20050;-58
2023/04/05 11:02:15;;;;;;;5.70;1.75;;;;;;;4.33;82.13;102071.31;5075322;28;20033;-58
2023/04/05 11:04:42;;;;;;;2.80;1.38;;;;;;;4.40;81.97;102067.19;5073713;28;20081;-58
2023/04/05 11:07:19;;;;;;;6.18;1.73;;;;;;;4.43;81.42;102070.38;5088696;28;20369;-58
2023/04/05 11:10:00;;;;;;;4.47;1.67;;;;;;;4.15;82.30;102077.25;5080848;28;20024;-58
2023/04/05 11:12:45;;;;;;;6.18;1.73;;;;;;;3.93;83.43;102074.81;5074365;28;20063;-58
2023/04/05 11:15:26;;;;;;;5.38;1.77;;;;;;;3.70;84.74;102074.13;5074800;28;20029;-58
2023/04/05 11:18:11;;;;;;;5.28;1.60;;;;;;;3.87;84.39;102064.75;5094079;28;20074;-58
2023/04/05 11:20:46;;;;;;;6.10;1.65;;;;;;;4.00;83.63;102072.44;5081796;28;20044;-58
2023/04/05 11:23:20;;;;;;;2.85;1.25;;;;;;;4.28;81.93;102077.06;5094728;28;20059;-58
2023/04/05 11:25:52;;;;;;;4.90;1.20;;;;;;;4.33;81.42;102072.19;5088153;28;20165;-58
2023/04/05 11:28:39;;;;;;;11.18;1.70;;;;;;;4.27;81.17;102077.16;5087358;28;20030;-58
2023/04/05 11:31:17;;;;;;;1.98;1.13;;;;;;;4.56;80.32;102078.09;5090183;28;20503;-58
2023/04/05 11:33:44;;;;;;;5.68;1.50;;;;;;;4.59;79.32;102083.13;5081596;28;20028;-58
2023/04/05 11:36:11;;;;;;;3.25;1.48;;;;;;;4.56;79.75;102077.28;5094188;28;20080;-58
2023/04/05 11:38:41;;;;;;;3.65;1.33;;;;;;;4.60;78.97;102078.66;5094166;28;20380;-58
2023/04/05 11:41:12;;;;;;;3.80;1.30;;;;;;;4.32;79.55;102081.09;5102024;28;20111;-57